createdAt,value
2022-11-07T00:03:55.824Z,2.10
2022-11-07T00:09:00.103Z,2.20
2022-11-07T00:14:04.568Z,2.33
2022-11-07T00:19:08.039Z,2.10
2022-11-07T00:24:11.228Z,2.27
2022-11-07T00:29:16.548Z,2.27
2022-11-07T00:34:19.675Z,2.23
2022-11-07T00:39:22.755Z,2.40
2022-11-07T00:44:27.276Z,2.23
2022-11-07T00:49:30.356Z,2.10
2022-11-07T00:54:33.443Z,2.37
2022-11-07T00:59:37.934Z,2.37
2022-11-07T01:04:58.660Z,2.53
2022-11-07T01:10:01.755Z,2.10
2022-11-07T01:15:06.979Z,2.20
2022-11-07T01:20:11.505Z,1.93
2022-11-07T01:25:14.628Z,2.10
2022-11-07T01:30:19.205Z,1.77
2022-11-07T01:35:22.304Z,2.00
2022-11-07T01:40:25.386Z,1.80
2022-11-07T01:45:31.836Z,1.83
2022-11-07T01:50:34.962Z,1.83
2022-11-07T01:55:38.465Z,1.70
2022-11-07T02:00:42.911Z,1.93
2022-11-07T02:05:50.189Z,1.60
2022-11-07T02:10:55.012Z,1.90
2022-11-07T02:16:00.884Z,1.60
2022-11-07T02:21:09.998Z,2.97
2022-11-07T02:26:14.683Z,1.70
2022-11-07T02:31:17.735Z,1.70
2022-11-07T02:36:24.131Z,1.67
2022-11-07T02:41:32.906Z,1.60
2022-11-07T02:46:36.432Z,1.57
2022-11-07T02:51:39.508Z,1.70
2022-11-07T02:56:44.087Z,1.60
2022-11-07T03:01:47.428Z,1.70
2022-11-07T03:06:50.575Z,1.90
2022-11-07T03:11:55.022Z,1.73
2022-11-07T03:16:58.109Z,1.80
2022-11-07T03:22:01.217Z,2.20
2022-11-07T03:27:05.727Z,1.73
2022-11-07T03:32:08.926Z,1.73
2022-11-07T03:37:12.038Z,2.03
2022-11-07T03:42:16.479Z,1.90
2022-11-07T03:47:19.545Z,1.90
2022-11-07T03:52:22.617Z,1.70
2022-11-07T03:57:27.074Z,1.73
2022-11-07T04:02:30.323Z,1.97
2022-11-07T04:07:33.589Z,1.70
2022-11-07T04:12:55.674Z,1.80
2022-11-07T04:18:00.597Z,1.80
2022-11-07T04:23:03.913Z,1.70
2022-11-07T04:28:08.331Z,1.23
2022-11-07T04:33:11.474Z,1.40
2022-11-07T04:38:14.705Z,1.60
2022-11-07T04:43:19.205Z,1.40
2022-11-07T04:48:22.635Z,1.50
2022-11-07T04:53:25.711Z,1.50
2022-11-07T04:58:30.156Z,1.40
2022-11-07T05:03:37.477Z,2.17
2022-11-07T05:08:43.615Z,1.53
2022-11-07T05:13:48.263Z,1.80
2022-11-07T05:18:51.347Z,1.67
2022-11-07T05:23:54.442Z,2.43
2022-11-07T05:28:59.037Z,3.67
2022-11-07T05:34:02.089Z,3.70
2022-11-07T05:39:05.249Z,3.87
2022-11-07T05:44:11.168Z,3.57
2022-11-07T05:49:14.237Z,2.97
2022-11-07T05:54:17.399Z,2.73
2022-11-07T05:59:21.913Z,1.60
2022-11-07T06:04:25.118Z,1.17
2022-11-07T06:09:28.284Z,1.60
2022-11-07T06:14:32.734Z,1.60
2022-11-07T06:19:35.867Z,1.83
2022-11-07T06:24:38.960Z,5.50
2022-11-07T06:29:43.596Z,13.20
2022-11-07T06:34:46.722Z,6.60
2022-11-07T06:39:49.879Z,6.30
2022-11-07T06:44:54.380Z,5.80
2022-11-07T06:49:57.483Z,6.13
2022-11-07T06:55:00.572Z,6.70
2022-11-07T07:00:07.528Z,7.27
2022-11-07T07:05:10.976Z,4.90
2022-11-07T07:10:14.222Z,4.60
2022-11-07T07:15:19.074Z,4.23
2022-11-07T07:20:22.167Z,4.43
2022-11-07T07:25:25.536Z,5.57
2022-11-07T07:30:30.036Z,5.50
2022-11-07T07:35:33.256Z,5.80
2022-11-07T07:40:36.326Z,5.50
2022-11-07T07:45:40.812Z,8.23
2022-11-07T07:50:43.968Z,6.10
2022-11-07T07:55:47.085Z,5.37
2022-11-07T08:00:54.957Z,5.00
2022-11-07T08:05:59.613Z,4.87
2022-11-07T08:11:04.333Z,4.13
2022-11-07T08:16:09.422Z,4.63
2022-11-07T08:21:12.503Z,4.77
2022-11-07T08:26:15.564Z,4.80
2022-11-07T08:31:20.049Z,5.50
2022-11-07T08:36:23.122Z,4.70
2022-11-07T08:41:26.218Z,4.37
2022-11-07T08:46:30.675Z,4.23
2022-11-07T08:51:34.248Z,4.40
2022-11-07T08:56:37.336Z,4.33
2022-11-07T09:02:15.058Z,4.90
2022-11-07T09:07:05.226Z,4.30
2022-11-07T09:12:09.165Z,5.63
2022-11-07T09:17:13.643Z,3.97
2022-11-07T09:22:16.731Z,3.50
2022-11-07T09:27:19.820Z,3.50
2022-11-07T09:32:43.859Z,3.27
2022-11-07T09:37:47.556Z,3.33
2022-11-07T09:43:01.971Z,3.03
2022-11-07T09:48:10.187Z,4.30
2022-11-07T09:53:19.411Z,2.60
2022-11-07T09:58:27.318Z,2.67
2022-11-07T10:03:32.716Z,5.07
2022-11-07T10:08:42.099Z,1.77
2022-11-07T10:13:58.579Z,2.33
2022-11-07T10:19:21.307Z,2.00
2022-11-07T10:24:44.359Z,2.17
2022-11-07T10:29:51.112Z,2.40
2022-11-07T10:35:02.506Z,1.63
2022-11-07T10:40:15.775Z,2.63
2022-11-07T10:45:19.887Z,1.73
2022-11-07T10:50:25.904Z,1.43
2022-11-07T10:55:29.688Z,2.23
2022-11-07T11:00:35.062Z,1.37
2022-11-07T11:05:46.209Z,1.57
2022-11-07T11:10:51.280Z,1.87
2022-11-07T11:15:55.751Z,1.87
2022-11-07T11:21:03.298Z,1.83
2022-11-07T11:26:09.348Z,1.40
2022-11-07T11:31:21.219Z,1.87
2022-11-07T11:36:29.734Z,2.93
2022-11-07T11:41:39.165Z,1.47
2022-11-07T11:46:50.727Z,1.50
2022-11-07T11:51:59.949Z,3.17
2022-11-07T11:57:06.968Z,4.80
2022-11-07T12:02:33.834Z,3.07
2022-11-07T12:07:53.055Z,2.17
2022-11-07T12:13:09.503Z,3.63
2022-11-07T12:18:20.228Z,3.00
2022-11-07T12:23:34.585Z,2.10
2022-11-07T12:28:48.052Z,1.30
2022-11-07T12:33:58.969Z,2.30
2022-11-07T12:39:16.965Z,1.83
2022-11-07T12:44:41.115Z,2.13
2022-11-07T12:50:00.089Z,1.83
2022-11-07T12:55:15.367Z,1.90
2022-11-07T13:00:27.658Z,1.30
2022-11-07T13:05:50.401Z,1.10
2022-11-07T13:11:00.722Z,2.20
2022-11-07T13:16:15.478Z,1.30
2022-11-07T13:21:18.930Z,2.40
2022-11-07T13:26:47.135Z,0.97
2022-11-07T13:32:07.021Z,2.23
2022-11-07T13:37:16.502Z,2.17
2022-11-07T13:42:23.619Z,2.00
2022-11-07T13:47:34.019Z,1.47
2022-11-07T13:52:42.667Z,1.90
2022-11-07T13:57:52.924Z,1.30
2022-11-07T14:02:58.069Z,2.00
2022-11-07T14:08:04.097Z,1.67
2022-11-07T14:13:10.265Z,1.23
2022-11-07T14:18:16.383Z,1.50
2022-11-07T14:23:23.777Z,3.20
2022-11-07T14:28:34.868Z,1.20
2022-11-07T14:33:38.103Z,1.97
2022-11-07T14:38:47.480Z,1.67
2022-11-07T14:43:53.090Z,2.30
2022-11-07T14:48:56.741Z,2.77
2022-11-07T14:54:02.644Z,2.13
2022-11-07T14:59:10.495Z,1.97
2022-11-07T15:04:18.079Z,4.33
2022-11-07T15:09:32.490Z,3.30
2022-11-07T15:14:37.770Z,1.83
2022-11-07T15:19:41.015Z,2.60
2022-11-07T15:24:45.541Z,1.33
2022-11-07T15:29:54.866Z,3.00
2022-11-07T15:35:17.513Z,4.40
2022-11-07T15:40:22.266Z,4.03
2022-11-07T15:45:27.108Z,3.70
2022-11-07T15:50:30.283Z,3.77
2022-11-07T15:55:34.845Z,3.83
2022-11-07T16:00:39.333Z,3.17
2022-11-07T16:05:43.213Z,4.17
2022-11-07T16:10:49.575Z,3.20
2022-11-07T16:15:58.051Z,4.20
2022-11-07T16:21:01.225Z,3.83
2022-11-07T16:26:05.384Z,5.33
2022-11-07T16:31:09.939Z,5.37
2022-11-07T16:36:23.068Z,6.00
2022-11-07T16:41:26.151Z,5.30
2022-11-07T16:46:36.711Z,5.07
2022-11-07T16:51:39.791Z,6.37
2022-11-07T16:56:42.916Z,5.40
2022-11-07T17:01:47.699Z,7.60
2022-11-07T17:06:50.995Z,4.57
2022-11-07T17:11:54.053Z,6.27
2022-11-07T17:17:01.434Z,3.23
2022-11-07T17:22:04.649Z,3.27
2022-11-07T17:27:20.239Z,4.97
2022-11-07T17:32:24.761Z,6.37
2022-11-07T17:37:27.928Z,6.47
2022-11-07T17:42:35.216Z,6.77
2022-11-07T17:47:42.428Z,9.67
2022-11-07T17:52:46.024Z,7.27
2022-11-07T17:57:49.303Z,8.17
2022-11-07T18:02:53.999Z,8.40
2022-11-07T18:07:57.267Z,13.30
2022-11-07T18:13:00.549Z,46.53
2022-11-07T18:18:10.620Z,53.57
2022-11-07T18:23:14.056Z,32.10
2022-11-07T18:28:17.592Z,16.13
2022-11-07T18:33:22.280Z,9.47
2022-11-07T18:38:25.369Z,9.90
2022-11-07T18:43:28.995Z,24.13
2022-11-07T18:48:33.480Z,19.67
2022-11-07T18:53:36.668Z,16.90
2022-11-07T18:58:41.314Z,17.20
2022-11-07T19:03:46.414Z,11.73
2022-11-07T19:08:50.138Z,9.43
2022-11-07T19:13:54.204Z,8.10
2022-11-07T19:19:00.362Z,8.87
2022-11-07T19:24:03.571Z,7.40
2022-11-07T19:29:06.909Z,8.10
2022-11-07T19:34:11.359Z,8.27
2022-11-07T19:39:14.479Z,8.80
2022-11-07T19:44:17.668Z,8.10
2022-11-07T19:49:22.270Z,8.30
2022-11-07T19:54:25.344Z,7.70
2022-11-07T19:59:28.528Z,6.67
2022-11-07T20:04:32.974Z,6.33
2022-11-07T20:09:36.219Z,6.67
2022-11-07T20:14:39.919Z,10.07
2022-11-07T20:19:44.460Z,7.07
2022-11-07T20:24:47.530Z,7.23
2022-11-07T20:29:50.766Z,9.60
2022-11-07T20:34:56.130Z,9.20
2022-11-07T20:39:59.302Z,9.43
2022-11-07T20:45:02.532Z,9.20
2022-11-07T20:50:08.186Z,9.43
2022-11-07T20:55:11.762Z,9.13
2022-11-07T21:00:16.800Z,9.57
2022-11-07T21:05:21.700Z,9.37
2022-11-07T21:10:25.263Z,8.37
2022-11-07T21:15:28.415Z,8.10
2022-11-07T21:20:33.057Z,7.70
2022-11-07T21:25:42.869Z,7.00
2022-11-07T21:30:46.347Z,8.00
2022-11-07T21:35:50.954Z,8.50
2022-11-07T21:40:54.136Z,8.03
2022-11-07T21:45:57.335Z,8.97
2022-11-07T21:51:05.996Z,8.67
2022-11-07T21:56:13.606Z,8.90
2022-11-07T22:01:17.709Z,9.43
2022-11-07T22:06:23.011Z,9.73
2022-11-07T22:11:26.250Z,7.17
2022-11-07T22:16:29.858Z,7.80
2022-11-07T22:21:34.794Z,7.70
2022-11-07T22:26:38.268Z,7.30
2022-11-07T22:31:41.478Z,6.37
2022-11-07T22:36:45.925Z,5.33
2022-11-07T22:41:49.207Z,4.60
2022-11-07T22:46:52.977Z,6.07
2022-11-07T22:51:57.423Z,5.70
2022-11-07T22:57:00.509Z,6.27
2022-11-07T23:02:03.856Z,6.37
2022-11-07T23:07:08.461Z,5.57
2022-11-07T23:12:11.538Z,5.50
2022-11-07T23:17:15.000Z,8.43
2022-11-07T23:22:19.600Z,6.13
2022-11-07T23:27:22.923Z,5.77
2022-11-07T23:32:27.708Z,5.73
2022-11-07T23:37:33.365Z,5.57
2022-11-07T23:42:36.487Z,5.97
2022-11-07T23:47:57.029Z,5.13
2022-11-07T23:53:21.843Z,5.37
2022-11-07T23:58:42.783Z,4.90
